createdAt,value
2022-10-15T00:00:41.228Z,100121.69
2022-10-15T00:03:07.907Z,100114.09
2022-10-15T00:05:37.562Z,100122.66
2022-10-15T00:08:04.494Z,100117.53
2022-10-15T00:10:31.162Z,100116.00
2022-10-15T00:12:58.071Z,100113.03
2022-10-15T00:15:24.698Z,100112.06
2022-10-15T00:17:51.272Z,100106.28
2022-10-15T00:20:18.242Z,100103.66
2022-10-15T00:22:44.883Z,100106.13
2022-10-15T00:25:11.700Z,100106.47
2022-10-15T00:27:38.566Z,100096.75
2022-10-15T00:30:06.197Z,100092.00
2022-10-15T00:32:33.628Z,100083.19
2022-10-15T00:35:00.175Z,100084.75
2022-10-15T00:37:26.882Z,100069.69
2022-10-15T00:39:53.944Z,100072.16
2022-10-15T00:42:21.096Z,100065.03
2022-10-15T00:44:56.193Z,100062.31
2022-10-15T00:47:37.522Z,100065.75
2022-10-15T00:50:11.152Z,100050.78
2022-10-15T00:52:44.028Z,100053.41
2022-10-15T00:55:13.709Z,100053.41
2022-10-15T00:57:41.271Z,100046.25
2022-10-15T01:00:15.059Z,100048.53
2022-10-15T01:02:43.590Z,100044.97
2022-10-15T01:05:11.552Z,100037.81
2022-10-15T01:07:40.066Z,100031.91
2022-10-15T01:10:08.954Z,100030.22
2022-10-15T01:13:01.880Z,100022.72
2022-10-15T01:15:43.477Z,100010.75
2022-10-15T01:18:18.123Z,100018.59
2022-10-15T01:20:58.353Z,100010.84
2022-10-15T01:23:57.679Z,100014.88
2022-10-15T01:26:42.771Z,100006.91
2022-10-15T01:29:38.167Z,100007.75
2022-10-15T01:32:24.086Z,100003.78
2022-10-15T01:35:05.230Z,100006.28
2022-10-15T01:37:57.777Z,100003.69
2022-10-15T01:40:31.222Z,99994.75
2022-10-15T01:43:00.044Z,99981.81
2022-10-15T01:45:49.806Z,99988.00
2022-10-15T01:48:31.520Z,99976.34
2022-10-15T01:51:02.191Z,99983.78
2022-10-15T01:53:29.568Z,99969.63
2022-10-15T01:56:00.658Z,99974.03
2022-10-15T01:58:29.838Z,99966.66
2022-10-15T02:00:58.611Z,99967.19
2022-10-15T02:03:26.309Z,99960.22
2022-10-15T02:06:06.471Z,99949.50
2022-10-15T02:08:45.445Z,99951.97
2022-10-15T02:11:18.503Z,99952.09
2022-10-15T02:13:55.509Z,99950.19
2022-10-15T02:16:40.612Z,99944.81
2022-10-15T02:19:30.218Z,99945.25
2022-10-15T02:22:32.263Z,99941.81
2022-10-15T02:25:05.003Z,99939.34
2022-10-15T02:27:34.072Z,99931.34
2022-10-15T02:30:06.654Z,99929.31
2022-10-15T02:32:35.428Z,99933.44
2022-10-15T02:35:02.896Z,99926.72
2022-10-15T02:37:31.365Z,99928.09
2022-10-15T02:39:57.989Z,99928.91
2022-10-15T02:42:25.485Z,99928.81
2022-10-15T02:44:52.908Z,99935.69
2022-10-15T02:47:19.704Z,99930.31
2022-10-15T02:49:47.140Z,99932.94
2022-10-15T02:52:14.093Z,99936.75
2022-10-15T02:54:41.553Z,99934.03
2022-10-15T02:57:08.185Z,99939.00
2022-10-15T02:59:34.936Z,99936.00
2022-10-15T03:02:02.110Z,99936.00
2022-10-15T03:04:29.724Z,99920.13
2022-10-15T03:06:58.001Z,99911.56
2022-10-15T03:09:25.606Z,99901.00
2022-10-15T03:11:52.213Z,99897.53
2022-10-15T03:14:20.268Z,99892.97
2022-10-15T03:16:46.885Z,99896.25
2022-10-15T03:19:13.561Z,99898.03
2022-10-15T03:21:40.782Z,99897.31
2022-10-15T03:24:11.689Z,99887.81
2022-10-15T03:26:38.346Z,99885.91
2022-10-15T03:29:04.993Z,99887.16
2022-10-15T03:31:36.158Z,99889.94
2022-10-15T03:34:04.310Z,99894.19
2022-10-15T03:36:31.442Z,99881.94
2022-10-15T03:38:58.915Z,99876.84
2022-10-15T03:41:25.680Z,99881.53
2022-10-15T03:43:52.919Z,99877.97
2022-10-15T03:46:19.874Z,99876.59
2022-10-15T03:48:50.619Z,99878.25
2022-10-15T03:51:22.744Z,99878.09
2022-10-15T03:53:56.568Z,99881.19
2022-10-15T03:56:23.811Z,99869.38
2022-10-15T03:58:50.976Z,99876.53
2022-10-15T04:01:18.816Z,99870.47
2022-10-15T04:03:45.962Z,99869.66
2022-10-15T04:06:15.709Z,99864.84
2022-10-15T04:08:42.399Z,99869.94
2022-10-15T04:11:22.759Z,99866.06
2022-10-15T04:13:59.343Z,99867.72
2022-10-15T04:16:26.178Z,99868.69
2022-10-15T04:18:53.884Z,99862.22
2022-10-15T04:21:21.514Z,99858.59
2022-10-15T04:23:53.763Z,99857.38
2022-10-15T04:26:26.841Z,99855.88
2022-10-15T04:28:53.936Z,99849.94
2022-10-15T04:31:22.669Z,99847.19
2022-10-15T04:33:49.993Z,99853.00
2022-10-15T04:38:56.153Z,99851.06
2022-10-15T04:41:35.234Z,99846.81
2022-10-15T04:44:08.608Z,99842.28
2022-10-15T04:46:37.228Z,99842.28
2022-10-15T04:49:19.539Z,99840.47
2022-10-15T04:51:46.292Z,99842.09
2022-10-15T04:54:17.911Z,99836.06
2022-10-15T04:56:57.013Z,99839.06
2022-10-15T04:59:24.326Z,99844.44
2022-10-15T05:02:17.418Z,99843.31
2022-10-15T05:04:48.209Z,99846.63
2022-10-15T05:07:15.524Z,99848.44
2022-10-15T05:09:46.161Z,99847.34
2022-10-15T05:12:14.472Z,99853.97
2022-10-15T05:14:41.884Z,99845.00
2022-10-15T05:17:15.649Z,99856.16
2022-10-15T05:19:46.293Z,99851.78
2022-10-15T05:22:20.423Z,99850.75
2022-10-15T05:24:51.970Z,99852.72
2022-10-15T05:27:27.042Z,99850.44
2022-10-15T05:29:53.838Z,99853.63
2022-10-15T05:34:51.630Z,99847.41
2022-10-15T05:37:18.372Z,99845.34
2022-10-15T05:39:45.125Z,99854.91
2022-10-15T05:42:11.970Z,99852.06
2022-10-15T05:44:42.413Z,99851.41
2022-10-15T05:47:11.899Z,99852.81
2022-10-15T05:49:40.559Z,99845.22
2022-10-15T05:52:15.818Z,99848.44
2022-10-15T05:55:01.241Z,99850.72
2022-10-15T05:57:28.022Z,99850.03
2022-10-15T05:59:56.947Z,99845.13
2022-10-15T06:02:24.142Z,99845.16
2022-10-15T06:04:53.349Z,99854.47
2022-10-15T06:07:20.490Z,99855.31
2022-10-15T06:09:47.467Z,99858.50
2022-10-15T06:12:15.678Z,99854.63
2022-10-15T06:14:42.260Z,99857.97
2022-10-15T06:17:08.814Z,99858.75
2022-10-15T06:19:35.388Z,99865.63
2022-10-15T06:22:02.052Z,99866.66
2022-10-15T06:24:28.650Z,99857.09
2022-10-15T06:27:00.316Z,99860.56
2022-10-15T06:29:30.289Z,99871.47
2022-10-15T06:32:02.069Z,99866.41
2022-10-15T06:34:28.732Z,99873.84
2022-10-15T06:36:55.927Z,99867.41
2022-10-15T06:39:24.150Z,99863.00
2022-10-15T06:41:50.889Z,99865.22
2022-10-15T06:44:17.521Z,99867.50
2022-10-15T06:46:44.128Z,99870.25
2022-10-15T06:49:10.762Z,99872.47
2022-10-15T06:51:42.534Z,99879.16
2022-10-15T06:54:09.122Z,99879.13
2022-10-15T06:56:36.110Z,99875.72
2022-10-15T06:59:02.739Z,99882.78
2022-10-15T07:01:29.352Z,99879.22
2022-10-15T07:03:55.968Z,99883.91
2022-10-15T07:06:22.700Z,99886.41
2022-10-15T07:08:55.507Z,99882.28
2022-10-15T07:11:22.096Z,99887.34
2022-10-15T07:13:48.689Z,99883.94
2022-10-15T07:16:15.628Z,99883.06
2022-10-15T07:18:42.190Z,99886.84
2022-10-15T07:23:37.691Z,99888.59
2022-10-15T07:26:04.437Z,99889.78
2022-10-15T07:28:31.322Z,99898.44
2022-10-15T07:31:04.480Z,99896.44
2022-10-15T07:33:33.385Z,99900.72
2022-10-15T07:36:06.611Z,99899.06
2022-10-15T07:38:34.096Z,99901.44
2022-10-15T07:41:02.672Z,99895.06
2022-10-15T07:43:32.137Z,99898.94
2022-10-15T07:45:58.660Z,99899.00
2022-10-15T07:48:25.446Z,99903.41
2022-10-15T07:51:00.492Z,99906.34
2022-10-15T07:53:27.460Z,99905.31
2022-10-15T07:55:59.983Z,99907.34
2022-10-15T07:58:30.853Z,99912.84
2022-10-15T08:01:02.866Z,99916.75
2022-10-15T08:03:30.686Z,99916.03
2022-10-15T08:06:00.295Z,99914.25
2022-10-15T08:08:28.438Z,99921.63
2022-10-15T08:10:55.127Z,99924.06
2022-10-15T08:13:21.862Z,99926.94
2022-10-15T08:15:50.919Z,99931.91
2022-10-15T08:18:17.734Z,99924.91
2022-10-15T08:20:44.325Z,99932.19
2022-10-15T08:23:15.993Z,99931.97
2022-10-15T08:25:42.761Z,99928.19
2022-10-15T08:28:12.843Z,99931.94
2022-10-15T08:30:39.477Z,99934.13
2022-10-15T08:33:12.370Z,99932.72
2022-10-15T08:35:43.633Z,99925.72
2022-10-15T08:38:14.787Z,99932.91
2022-10-15T08:40:54.645Z,99936.84
2022-10-15T08:43:43.211Z,99941.31
2022-10-15T08:46:39.797Z,99938.66
2022-10-15T08:49:29.836Z,99935.84
2022-10-15T08:52:06.984Z,99935.28
2022-10-15T08:54:35.480Z,99952.41
2022-10-15T08:57:17.068Z,99951.63
2022-10-15T08:59:52.601Z,99947.88
2022-10-15T09:02:42.412Z,99947.03
2022-10-15T09:05:44.121Z,99951.53
2022-10-15T09:08:31.681Z,99955.66
2022-10-15T09:11:09.456Z,99955.09
2022-10-15T09:13:42.342Z,99953.66
2022-10-15T09:16:16.637Z,99945.25
2022-10-15T09:18:49.978Z,99951.22
2022-10-15T09:21:17.259Z,99959.34
2022-10-15T09:23:45.299Z,99963.97
2022-10-15T09:26:11.890Z,99960.16
2022-10-15T09:28:58.881Z,99959.63
2022-10-15T09:31:31.020Z,99971.66
2022-10-15T09:34:12.729Z,99971.72
2022-10-15T09:37:31.852Z,99972.88
2022-10-15T09:40:35.693Z,99974.94
2022-10-15T09:43:04.276Z,99972.13
2022-10-15T09:45:31.185Z,99969.53
2022-10-15T09:48:00.235Z,99970.09
2022-10-15T09:50:37.051Z,99967.78
2022-10-15T09:53:25.984Z,99966.16
2022-10-15T09:56:13.829Z,99973.78
2022-10-15T09:58:49.708Z,99969.31
2022-10-15T10:01:24.032Z,99969.06
2022-10-15T10:03:54.000Z,99974.28
2022-10-15T10:06:23.243Z,99982.50
2022-10-15T10:08:59.472Z,99986.75
2022-10-15T10:11:27.340Z,99979.66
2022-10-15T10:13:59.621Z,99976.19
2022-10-15T10:16:27.706Z,99977.00
2022-10-15T10:19:06.631Z,99976.31
2022-10-15T10:21:39.241Z,99975.09
2022-10-15T10:24:31.829Z,99976.34
2022-10-15T10:26:59.768Z,99981.44
2022-10-15T10:29:35.484Z,99986.84
2022-10-15T10:32:19.045Z,99983.81
2022-10-15T10:34:51.471Z,99987.81
2022-10-15T10:37:19.406Z,99982.00
2022-10-15T10:39:51.777Z,99984.63
2022-10-15T10:42:19.483Z,99978.53
2022-10-15T10:44:46.828Z,99982.97
2022-10-15T10:47:15.077Z,99988.09
2022-10-15T10:49:43.280Z,99977.00
2022-10-15T10:52:29.087Z,99981.47
2022-10-15T10:54:58.917Z,99975.13
2022-10-15T10:57:50.922Z,99980.22
2022-10-15T11:00:45.456Z,99972.59
2022-10-15T11:03:34.480Z,99978.81
2022-10-15T11:06:35.345Z,99982.41
2022-10-15T11:09:15.726Z,99976.88
2022-10-15T11:12:21.672Z,99979.41
2022-10-15T11:14:59.207Z,99987.50
2022-10-15T11:17:46.909Z,99976.75
2022-10-15T11:20:57.714Z,99981.16
2022-10-15T11:24:05.497Z,99980.81
2022-10-15T11:26:59.256Z,99982.41
2022-10-15T11:30:09.782Z,99977.44
2022-10-15T11:33:08.129Z,99982.41
2022-10-15T11:35:53.797Z,99978.41
2022-10-15T11:38:29.463Z,99983.31
2022-10-15T11:40:59.104Z,99988.56
2022-10-15T11:43:28.557Z,99988.13
2022-10-15T11:46:11.100Z,99986.53
2022-10-15T11:48:56.290Z,99985.66
2022-10-15T11:51:27.529Z,99998.19
2022-10-15T11:54:13.164Z,99992.41
2022-10-15T11:56:45.688Z,99998.59
2022-10-15T11:59:30.442Z,100006.28
2022-10-15T12:02:22.483Z,100008.47
2022-10-15T12:04:56.755Z,100008.88
2022-10-15T12:07:30.987Z,100008.63
2022-10-15T12:10:05.018Z,100000.34
2022-10-15T12:12:46.186Z,99997.31
2022-10-15T12:15:33.531Z,99999.94
2022-10-15T12:18:37.076Z,99994.41
2022-10-15T12:21:03.727Z,99999.66
2022-10-15T12:23:36.185Z,99992.63
2022-10-15T12:26:23.798Z,99995.25
2022-10-15T12:28:58.376Z,100007.94
2022-10-15T12:31:44.354Z,100006.28
2022-10-15T12:34:27.452Z,99998.97
2022-10-15T12:37:03.471Z,100000.56
2022-10-15T12:39:51.173Z,100002.03
2022-10-15T12:42:28.429Z,99996.88
2022-10-15T12:44:57.116Z,99994.63
2022-10-15T12:48:04.935Z,100004.38
2022-10-15T12:50:34.205Z,99992.25
2022-10-15T12:53:29.382Z,100002.03
2022-10-15T12:56:11.950Z,100004.81
2022-10-15T12:58:46.307Z,100002.19
2022-10-15T13:01:12.911Z,99994.47
2022-10-15T13:03:43.541Z,99996.81
2022-10-15T13:06:36.592Z,100007.31
2022-10-15T13:09:03.245Z,100003.09
2022-10-15T13:11:48.212Z,99999.06
2022-10-15T13:14:26.271Z,100000.56
2022-10-15T13:16:55.826Z,99999.66
2022-10-15T13:19:39.451Z,100001.75
2022-10-15T13:22:19.733Z,99994.41
2022-10-15T13:24:46.508Z,100001.69
2022-10-15T13:27:32.678Z,100000.97
2022-10-15T13:30:06.843Z,100001.84
2022-10-15T13:32:38.643Z,100001.81
2022-10-15T13:35:12.080Z,100005.97
2022-10-15T13:37:41.009Z,100009.03
2022-10-15T13:40:08.672Z,100006.81
2022-10-15T13:42:35.563Z,100005.00
2022-10-15T13:45:19.167Z,100015.06
2022-10-15T13:47:52.199Z,100011.38
2022-10-15T13:50:30.615Z,100011.25
2022-10-15T13:53:09.470Z,100008.75
2022-10-15T13:55:46.038Z,100007.78
2022-10-15T13:58:15.569Z,100003.69
2022-10-15T14:00:42.419Z,100005.81
2022-10-15T14:03:16.085Z,100009.75
2022-10-15T14:05:48.005Z,100006.56
2022-10-15T14:08:27.838Z,100006.16
2022-10-15T14:10:58.579Z,100009.75
2022-10-15T14:13:26.580Z,100003.94
2022-10-15T14:16:00.360Z,100002.81
2022-10-15T14:18:37.656Z,100007.69
2022-10-15T14:21:11.501Z,100008.75
2022-10-15T14:23:39.129Z,100007.16
2022-10-15T14:26:06.262Z,100016.06
2022-10-15T14:28:34.502Z,100011.00
2022-10-15T14:31:02.719Z,100022.41
2022-10-15T14:33:38.047Z,100019.91
2022-10-15T14:36:06.461Z,100018.13
2022-10-15T14:38:33.733Z,100018.19
2022-10-15T14:41:18.691Z,100007.25
2022-10-15T14:43:45.333Z,100008.97
2022-10-15T14:46:17.822Z,100003.59
2022-10-15T14:48:44.826Z,100004.47
2022-10-15T14:51:24.749Z,100002.06
2022-10-15T14:53:53.100Z,99992.06
2022-10-15T14:56:23.877Z,99994.88
2022-10-15T14:58:56.798Z,99990.81
2022-10-15T15:01:24.580Z,99991.78
2022-10-15T15:03:53.761Z,99993.03
2022-10-15T15:06:20.821Z,99986.66
2022-10-15T15:08:47.554Z,99980.00
2022-10-15T15:11:19.265Z,99984.16
2022-10-15T15:13:46.240Z,99975.94
2022-10-15T15:16:15.627Z,99971.53
2022-10-15T15:18:43.893Z,99981.41
2022-10-15T15:21:18.281Z,99990.66
2022-10-15T15:23:45.007Z,99989.72
2022-10-15T15:26:11.567Z,99994.03
2022-10-15T15:28:38.204Z,99993.59
2022-10-15T15:31:08.108Z,99995.25
2022-10-15T15:33:35.177Z,99998.38
2022-10-15T15:36:21.019Z,100000.72
2022-10-15T15:38:50.432Z,100008.88
2022-10-15T15:41:19.717Z,100008.19
2022-10-15T15:43:46.936Z,100022.09
2022-10-15T15:46:13.645Z,100021.69
2022-10-15T15:48:40.454Z,100022.38
2022-10-15T15:51:19.161Z,100023.84
2022-10-15T15:53:45.931Z,100031.47
2022-10-15T15:56:12.555Z,100029.81
2022-10-15T15:58:39.245Z,100030.50
2022-10-15T16:01:05.945Z,100027.78
2022-10-15T16:03:32.600Z,100026.38
2022-10-15T16:05:59.244Z,100026.47
2022-10-15T16:08:25.913Z,100034.84
2022-10-15T16:10:52.493Z,100038.41
2022-10-15T16:13:19.391Z,100038.53
2022-10-15T16:15:46.031Z,100043.56
2022-10-15T16:18:12.657Z,100046.97
2022-10-15T16:20:46.309Z,100051.72
2022-10-15T16:23:14.670Z,100048.88
2022-10-15T16:25:41.522Z,100052.41
2022-10-15T16:28:08.196Z,100051.06
2022-10-15T16:30:34.909Z,100049.56
2022-10-15T16:33:01.510Z,100058.59
2022-10-15T16:35:28.107Z,100053.63
2022-10-15T16:37:56.196Z,100053.28
2022-10-15T16:40:23.797Z,100051.09
2022-10-15T16:42:50.423Z,100047.41
2022-10-15T16:45:17.256Z,100046.28
2022-10-15T16:47:43.819Z,100044.72
2022-10-15T16:50:10.524Z,100046.38
2022-10-15T16:52:37.114Z,100037.28
2022-10-15T16:55:03.829Z,100030.03
2022-10-15T16:57:30.444Z,100039.63
2022-10-15T16:59:57.011Z,100042.41
2022-10-15T17:02:23.757Z,100045.13
2022-10-15T17:04:50.555Z,100046.69
2022-10-15T17:07:17.277Z,100047.25
2022-10-15T17:09:44.931Z,100042.84
2022-10-15T17:12:11.966Z,100046.00
2022-10-15T17:14:38.590Z,100038.16
2022-10-15T17:17:07.613Z,100040.88
2022-10-15T17:19:35.046Z,100041.72
2022-10-15T17:22:01.664Z,100044.09
2022-10-15T17:24:28.293Z,100043.69
2022-10-15T17:26:57.761Z,100046.25
2022-10-15T17:29:27.778Z,100052.41
2022-10-15T17:31:57.487Z,100055.69
2022-10-15T17:34:24.204Z,100058.00
2022-10-15T17:36:52.178Z,100054.63
2022-10-15T17:39:20.573Z,100059.91
2022-10-15T17:41:47.586Z,100057.03
2022-10-15T17:44:14.319Z,100058.44
2022-10-15T17:46:41.462Z,100056.09
2022-10-15T17:49:09.686Z,100061.25
2022-10-15T17:51:37.203Z,100067.84
2022-10-15T17:54:06.118Z,100074.06
2022-10-15T17:56:38.283Z,100066.94
2022-10-15T17:59:07.478Z,100067.19
2022-10-15T18:01:57.153Z,100073.22
2022-10-15T18:04:23.666Z,100070.84
2022-10-15T18:06:50.294Z,100072.78
2022-10-15T18:09:27.599Z,100066.94
2022-10-15T18:12:01.163Z,100073.09
2022-10-15T18:14:30.281Z,100072.50
2022-10-15T18:16:57.147Z,100075.13
2022-10-15T18:19:25.798Z,100077.16
2022-10-15T18:21:52.918Z,100078.59
2022-10-15T18:24:21.946Z,100079.78
2022-10-15T18:26:50.046Z,100077.06
2022-10-15T18:29:16.704Z,100071.47
2022-10-15T18:31:45.245Z,100079.56
2022-10-15T18:34:11.897Z,100073.38
2022-10-15T18:36:41.522Z,100066.75
2022-10-15T18:39:08.114Z,100062.47
2022-10-15T18:41:37.274Z,100064.28
2022-10-15T18:44:06.734Z,100056.53
2022-10-15T18:46:34.866Z,100053.81
2022-10-15T18:49:02.450Z,100051.41
2022-10-15T18:51:30.771Z,100050.47
2022-10-15T18:53:58.436Z,100040.25
2022-10-15T18:56:25.396Z,100042.88
2022-10-15T18:58:54.713Z,100042.88
2022-10-15T19:01:43.995Z,100049.31
2022-10-15T19:04:13.835Z,100048.34
2022-10-15T19:06:46.292Z,100048.59
2022-10-15T19:09:15.298Z,100038.41
2022-10-15T19:11:43.877Z,100042.22
2022-10-15T19:14:11.103Z,100039.72
2022-10-15T19:16:37.805Z,100037.38
2022-10-15T19:19:12.883Z,100046.16
2022-10-15T19:21:39.481Z,100043.91
2022-10-15T19:24:06.225Z,100038.22
2022-10-15T19:26:33.183Z,100035.72
2022-10-15T19:29:01.639Z,100040.97
2022-10-15T19:31:37.216Z,100029.69
2022-10-15T19:34:04.687Z,100026.94
2022-10-15T19:36:37.808Z,100025.28
2022-10-15T19:39:07.588Z,100027.16
2022-10-15T19:41:42.572Z,100023.72
2022-10-15T19:44:11.063Z,100028.13
2022-10-15T19:46:38.587Z,100033.69
2022-10-15T19:49:06.621Z,100031.78
2022-10-15T19:51:33.780Z,100030.84
2022-10-15T19:54:00.371Z,100030.84
2022-10-15T19:56:31.377Z,100034.84
2022-10-15T19:58:59.855Z,100039.38
2022-10-15T20:01:27.791Z,100039.28
2022-10-15T20:03:54.855Z,100032.25
2022-10-15T20:06:21.450Z,100028.81
2022-10-15T20:08:48.208Z,100039.97
2022-10-15T20:11:14.824Z,100034.63
2022-10-15T20:13:41.340Z,100037.13
2022-10-15T20:16:10.487Z,100043.06
2022-10-15T20:18:37.396Z,100042.91
2022-10-15T20:21:12.368Z,100044.44
2022-10-15T20:23:40.847Z,100039.34
2022-10-15T20:26:09.644Z,100045.38
2022-10-15T20:28:37.886Z,100042.53
2022-10-15T20:31:12.524Z,100042.91
2022-10-15T20:33:41.097Z,100045.13
2022-10-15T20:36:14.452Z,100039.09
2022-10-15T20:38:41.715Z,100035.53
2022-10-15T20:41:10.828Z,100044.19
2022-10-15T20:43:37.807Z,100050.13
2022-10-15T20:46:08.640Z,100049.31
2022-10-15T20:48:35.559Z,100053.44
2022-10-15T20:51:02.175Z,100038.34
2022-10-15T20:53:29.388Z,100046.31
2022-10-15T20:55:56.042Z,100044.41
2022-10-15T20:58:22.692Z,100044.16
2022-10-15T21:00:49.234Z,100056.00
2022-10-15T21:03:15.793Z,100050.41
2022-10-15T21:05:42.434Z,100047.44
2022-10-15T21:08:09.100Z,100048.44
2022-10-15T21:10:35.719Z,100038.19
2022-10-15T21:13:02.378Z,100042.19
2022-10-15T21:15:30.613Z,100039.34
2022-10-15T21:17:58.120Z,100044.41
2022-10-15T21:20:26.077Z,100045.69
2022-10-15T21:22:53.207Z,100041.41
2022-10-15T21:25:20.238Z,100042.69
2022-10-15T21:27:46.911Z,100041.84
2022-10-15T21:30:13.562Z,100040.66
2022-10-15T21:32:40.179Z,100030.88
2022-10-15T21:35:07.192Z,100029.66
2022-10-15T21:37:35.628Z,100027.88
2022-10-15T21:40:02.745Z,100015.88
2022-10-15T21:42:30.383Z,100013.16
2022-10-15T21:44:58.010Z,100005.97
2022-10-15T21:47:25.274Z,100012.50
2022-10-15T21:49:52.129Z,100005.47
2022-10-15T21:52:18.659Z,99994.19
2022-10-15T21:54:45.775Z,99999.41
2022-10-15T21:57:12.401Z,99988.63
2022-10-15T21:59:39.066Z,99985.19
2022-10-15T22:02:05.859Z,99990.03
2022-10-15T22:04:35.702Z,99985.63
2022-10-15T22:07:02.985Z,99990.88
2022-10-15T22:09:30.049Z,99985.75
2022-10-15T22:11:56.739Z,99990.28
2022-10-15T22:14:23.360Z,99991.25
2022-10-15T22:16:49.869Z,99985.34
2022-10-15T22:19:17.451Z,99984.66
2022-10-15T22:21:44.945Z,99992.22
2022-10-15T22:24:14.838Z,100001.16
2022-10-15T22:26:44.240Z,100001.84
2022-10-15T22:29:20.081Z,100000.91
2022-10-15T22:31:47.424Z,100000.75
2022-10-15T22:34:14.391Z,100004.31
2022-10-15T22:36:41.003Z,100005.31
2022-10-15T22:39:08.671Z,100004.63
2022-10-15T22:41:39.728Z,100013.97
2022-10-15T22:44:14.083Z,100004.16
2022-10-15T22:46:41.276Z,100008.50
2022-10-15T22:49:08.626Z,100009.72
2022-10-15T22:51:35.426Z,100016.03
2022-10-15T22:54:02.122Z,100009.88
2022-10-15T22:56:29.525Z,100007.06
2022-10-15T22:58:57.659Z,99998.19
2022-10-15T23:01:26.911Z,100012.72
2022-10-15T23:03:56.638Z,100013.06
2022-10-15T23:06:24.007Z,100009.38
2022-10-15T23:08:51.592Z,100006.28
2022-10-15T23:11:26.065Z,100019.66
2022-10-15T23:13:58.285Z,100009.56
2022-10-15T23:16:30.061Z,100024.22
2022-10-15T23:19:02.081Z,100021.28
2022-10-15T23:21:37.902Z,100026.25
2022-10-15T23:24:06.010Z,100020.06
2022-10-15T23:26:32.631Z,100015.22
2022-10-15T23:29:01.558Z,100019.19
2022-10-15T23:31:32.268Z,100013.75
2022-10-15T23:33:59.521Z,100014.59
2022-10-15T23:36:27.348Z,100024.69
2022-10-15T23:39:02.916Z,100022.75
2022-10-15T23:41:30.280Z,100024.91
2022-10-15T23:43:57.286Z,100024.91
2022-10-15T23:46:24.211Z,100016.41
2022-10-15T23:48:51.446Z,100027.53
2022-10-15T23:51:26.399Z,100032.59
2022-10-15T23:53:54.505Z,100028.63
2022-10-15T23:56:22.076Z,100036.69
2022-10-15T23:58:54.164Z,100032.66
